sensor_id;sensor_type;location;lat;lon;timestamp;P1;durP1;ratioP1;P2;durP2;ratioP2
3101;SDS011;1561;42.666;23.392;2022-10-22T00:00:48;18.97;;;14.50;;
3101;SDS011;1561;42.666;23.392;2022-10-22T00:03:14;21.97;;;13.73;;
3101;SDS011;1561;42.666;23.392;2022-10-22T00:05:46;20.13;;;14.53;;
3101;SDS011;1561;42.666;23.392;2022-10-22T00:08:16;20.80;;;13.80;;
3101;SDS011;1561;42.666;23.392;2022-10-22T00:10:51;20.07;;;13.90;;
3101;SDS011;1561;42.666;23.392;2022-10-22T00:13:22;20.77;;;12.90;;
3101;SDS011;1561;42.666;23.392;2022-10-22T00:15:49;19.03;;;14.53;;
3101;SDS011;1561;42.666;23.392;2022-10-22T00:18:20;21.90;;;16.90;;
3101;SDS011;1561;42.666;23.392;2022-10-22T00:20:50;26.10;;;17.87;;
3101;SDS011;1561;42.666;23.392;2022-10-22T00:23:17;26.80;;;20.87;;
3101;SDS011;1561;42.666;23.392;2022-10-22T00:25:45;35.20;;;21.00;;
3101;SDS011;1561;42.666;23.392;2022-10-22T00:28:13;32.27;;;21.70;;
3101;SDS011;1561;42.666;23.392;2022-10-22T00:30:40;33.30;;;22.57;;
3101;SDS011;1561;42.666;23.392;2022-10-22T00:33:08;32.67;;;23.50;;
3101;SDS011;1561;42.666;23.392;2022-10-22T00:35:36;34.00;;;22.93;;
3101;SDS011;1561;42.666;23.392;2022-10-22T00:38:04;22.60;;;16.03;;
3101;SDS011;1561;42.666;23.392;2022-10-22T00:40:31;21.73;;;16.60;;
3101;SDS011;1561;42.666;23.392;2022-10-22T00:42:58;22.57;;;15.47;;
3101;SDS011;1561;42.666;23.392;2022-10-22T00:45:25;20.77;;;14.00;;
3101;SDS011;1561;42.666;23.392;2022-10-22T00:47:54;19.30;;;14.80;;
3101;SDS011;1561;42.666;23.392;2022-10-22T00:50:27;25.70;;;15.23;;
3101;SDS011;1561;42.666;23.392;2022-10-22T00:53:00;19.83;;;14.27;;
3101;SDS011;1561;42.666;23.392;2022-10-22T00:55:31;23.70;;;17.07;;
3101;SDS011;1561;42.666;23.392;2022-10-22T00:57:59;24.97;;;18.00;;
3101;SDS011;1561;42.666;23.392;2022-10-22T01:00:29;25.17;;;18.03;;
3101;SDS011;1561;42.666;23.392;2022-10-22T01:02:58;23.87;;;17.90;;
3101;SDS011;1561;42.666;23.392;2022-10-22T01:05:26;30.53;;;19.40;;
3101;SDS011;1561;42.666;23.392;2022-10-22T01:07:56;28.33;;;19.63;;
3101;SDS011;1561;42.666;23.392;2022-10-22T01:10:26;31.87;;;20.40;;
3101;SDS011;1561;42.666;23.392;2022-10-22T01:13:16;25.60;;;17.87;;
3101;SDS011;1561;42.666;23.392;2022-10-22T01:15:57;25.13;;;18.10;;
3101;SDS011;1561;42.666;23.392;2022-10-22T01:18:35;25.60;;;16.93;;
3101;SDS011;1561;42.666;23.392;2022-10-22T01:21:13;19.07;;;14.93;;
3101;SDS011;1561;42.666;23.392;2022-10-22T01:27:02;18.57;;;13.53;;
3101;SDS011;1561;42.666;23.392;2022-10-22T01:29:59;18.50;;;13.40;;
3101;SDS011;1561;42.666;23.392;2022-10-22T01:32:31;21.43;;;13.10;;
3101;SDS011;1561;42.666;23.392;2022-10-22T01:35:03;19.40;;;13.23;;
3101;SDS011;1561;42.666;23.392;2022-10-22T01:37:37;16.67;;;12.97;;
3101;SDS011;1561;42.666;23.392;2022-10-22T01:40:12;18.67;;;12.67;;
3101;SDS011;1561;42.666;23.392;2022-10-22T01:42:52;16.37;;;12.57;;
3101;SDS011;1561;42.666;23.392;2022-10-22T01:45:24;19.13;;;13.77;;
3101;SDS011;1561;42.666;23.392;2022-10-22T01:47:54;18.07;;;14.07;;
3101;SDS011;1561;42.666;23.392;2022-10-22T01:50:32;17.23;;;12.63;;
3101;SDS011;1561;42.666;23.392;2022-10-22T01:53:24;20.00;;;14.77;;
3101;SDS011;1561;42.666;23.392;2022-10-22T01:56:08;19.57;;;14.00;;
3101;SDS011;1561;42.666;23.392;2022-10-22T01:58:47;18.90;;;15.30;;
3101;SDS011;1561;42.666;23.392;2022-10-22T02:01:25;20.00;;;15.37;;
3101;SDS011;1561;42.666;23.392;2022-10-22T02:04:00;26.97;;;18.47;;
3101;SDS011;1561;42.666;23.392;2022-10-22T02:06:34;31.13;;;19.73;;
3101;SDS011;1561;42.666;23.392;2022-10-22T02:09:10;32.33;;;20.03;;
3101;SDS011;1561;42.666;23.392;2022-10-22T02:11:54;29.63;;;19.67;;
3101;SDS011;1561;42.666;23.392;2022-10-22T02:14:23;33.43;;;21.10;;
3101;SDS011;1561;42.666;23.392;2022-10-22T02:16:55;35.77;;;22.47;;
3101;SDS011;1561;42.666;23.392;2022-10-22T02:19:25;37.00;;;24.50;;
3101;SDS011;1561;42.666;23.392;2022-10-22T02:21:58;34.20;;;23.83;;
3101;SDS011;1561;42.666;23.392;2022-10-22T02:24:30;37.40;;;24.37;;
3101;SDS011;1561;42.666;23.392;2022-10-22T02:26:57;33.23;;;23.70;;
3101;SDS011;1561;42.666;23.392;2022-10-22T02:29:33;33.30;;;22.47;;
3101;SDS011;1561;42.666;23.392;2022-10-22T02:32:07;37.47;;;23.20;;
3101;SDS011;1561;42.666;23.392;2022-10-22T02:34:36;37.57;;;26.00;;
3101;SDS011;1561;42.666;23.392;2022-10-22T02:37:04;36.73;;;25.73;;
3101;SDS011;1561;42.666;23.392;2022-10-22T02:39:33;36.80;;;25.60;;
3101;SDS011;1561;42.666;23.392;2022-10-22T02:42:03;39.03;;;24.23;;
3101;SDS011;1561;42.666;23.392;2022-10-22T02:44:31;35.40;;;25.17;;
3101;SDS011;1561;42.666;23.392;2022-10-22T02:46:58;37.00;;;23.97;;
3101;SDS011;1561;42.666;23.392;2022-10-22T02:49:27;37.03;;;24.60;;
3101;SDS011;1561;42.666;23.392;2022-10-22T02:51:57;31.50;;;21.67;;
3101;SDS011;1561;42.666;23.392;2022-10-22T02:54:26;28.67;;;20.33;;
3101;SDS011;1561;42.666;23.392;2022-10-22T02:56:53;31.77;;;22.87;;
3101;SDS011;1561;42.666;23.392;2022-10-22T02:59:20;36.87;;;24.10;;
3101;SDS011;1561;42.666;23.392;2022-10-22T03:01:47;34.13;;;22.90;;
3101;SDS011;1561;42.666;23.392;2022-10-22T03:04:15;34.60;;;23.07;;
3101;SDS011;1561;42.666;23.392;2022-10-22T03:06:43;21.60;;;16.93;;
3101;SDS011;1561;42.666;23.392;2022-10-22T03:09:12;21.47;;;15.73;;
3101;SDS011;1561;42.666;23.392;2022-10-22T03:11:39;21.93;;;14.50;;
3101;SDS011;1561;42.666;23.392;2022-10-22T03:14:11;23.80;;;14.87;;
3101;SDS011;1561;42.666;23.392;2022-10-22T03:16:41;19.60;;;14.50;;
3101;SDS011;1561;42.666;23.392;2022-10-22T03:19:08;21.13;;;14.90;;
3101;SDS011;1561;42.666;23.392;2022-10-22T03:21:35;20.63;;;13.27;;
3101;SDS011;1561;42.666;23.392;2022-10-22T03:24:11;19.73;;;13.47;;
3101;SDS011;1561;42.666;23.392;2022-10-22T03:26:41;16.77;;;13.53;;
3101;SDS011;1561;42.666;23.392;2022-10-22T03:29:10;20.13;;;13.73;;
3101;SDS011;1561;42.666;23.392;2022-10-22T03:31:40;16.97;;;13.00;;
3101;SDS011;1561;42.666;23.392;2022-10-22T03:34:07;19.53;;;13.00;;
3101;SDS011;1561;42.666;23.392;2022-10-22T03:36:36;20.93;;;13.57;;
3101;SDS011;1561;42.666;23.392;2022-10-22T03:39:03;19.13;;;14.33;;
3101;SDS011;1561;42.666;23.392;2022-10-22T03:41:32;19.40;;;14.40;;
3101;SDS011;1561;42.666;23.392;2022-10-22T03:43:59;19.33;;;14.97;;
3101;SDS011;1561;42.666;23.392;2022-10-22T03:46:31;20.20;;;13.83;;
3101;SDS011;1561;42.666;23.392;2022-10-22T03:49:02;23.70;;;16.20;;
3101;SDS011;1561;42.666;23.392;2022-10-22T03:51:30;22.50;;;14.40;;
3101;SDS011;1561;42.666;23.392;2022-10-22T03:53:57;23.77;;;15.93;;
3101;SDS011;1561;42.666;23.392;2022-10-22T03:56:25;22.53;;;15.70;;
3101;SDS011;1561;42.666;23.392;2022-10-22T03:58:55;21.87;;;14.70;;
3101;SDS011;1561;42.666;23.392;2022-10-22T04:01:23;21.17;;;15.20;;
3101;SDS011;1561;42.666;23.392;2022-10-22T04:03:51;20.50;;;14.93;;
3101;SDS011;1561;42.666;23.392;2022-10-22T04:06:20;22.43;;;15.67;;
3101;SDS011;1561;42.666;23.392;2022-10-22T04:08:48;19.83;;;14.57;;
3101;SDS011;1561;42.666;23.392;2022-10-22T04:11:15;19.87;;;13.67;;
3101;SDS011;1561;42.666;23.392;2022-10-22T04:13:42;16.50;;;13.47;;
3101;SDS011;1561;42.666;23.392;2022-10-22T04:16:11;16.10;;;12.00;;
3101;SDS011;1561;42.666;23.392;2022-10-22T04:18:41;22.03;;;14.07;;
3101;SDS011;1561;42.666;23.392;2022-10-22T04:21:10;17.03;;;12.53;;
3101;SDS011;1561;42.666;23.392;2022-10-22T04:23:43;16.53;;;13.13;;
3101;SDS011;1561;42.666;23.392;2022-10-22T04:26:12;19.67;;;13.77;;
3101;SDS011;1561;42.666;23.392;2022-10-22T04:28:42;19.80;;;13.90;;
3101;SDS011;1561;42.666;23.392;2022-10-22T04:31:14;18.20;;;13.73;;
3101;SDS011;1561;42.666;23.392;2022-10-22T04:33:46;22.37;;;14.47;;
3101;SDS011;1561;42.666;23.392;2022-10-22T04:36:14;20.33;;;14.47;;
3101;SDS011;1561;42.666;23.392;2022-10-22T04:38:42;27.77;;;16.87;;
3101;SDS011;1561;42.666;23.392;2022-10-22T04:41:13;28.63;;;20.07;;
3101;SDS011;1561;42.666;23.392;2022-10-22T04:43:42;39.77;;;21.37;;
3101;SDS011;1561;42.666;23.392;2022-10-22T04:46:09;36.50;;;21.80;;
3101;SDS011;1561;42.666;23.392;2022-10-22T04:48:39;32.00;;;22.27;;
3101;SDS011;1561;42.666;23.392;2022-10-22T04:51:09;38.13;;;23.80;;
3101;SDS011;1561;42.666;23.392;2022-10-22T04:53:38;37.33;;;24.30;;
3101;SDS011;1561;42.666;23.392;2022-10-22T04:56:06;36.30;;;25.00;;
3101;SDS011;1561;42.666;23.392;2022-10-22T04:58:34;37.50;;;24.80;;
3101;SDS011;1561;42.666;23.392;2022-10-22T05:01:12;35.53;;;22.53;;
3101;SDS011;1561;42.666;23.392;2022-10-22T05:03:44;34.87;;;24.10;;
3101;SDS011;1561;42.666;23.392;2022-10-22T05:06:12;32.77;;;23.70;;
3101;SDS011;1561;42.666;23.392;2022-10-22T05:08:41;38.03;;;23.90;;
3101;SDS011;1561;42.666;23.392;2022-10-22T05:11:09;30.67;;;21.40;;
3101;SDS011;1561;42.666;23.392;2022-10-22T05:13:37;30.70;;;20.67;;
3101;SDS011;1561;42.666;23.392;2022-10-22T05:16:04;38.40;;;24.40;;
3101;SDS011;1561;42.666;23.392;2022-10-22T05:18:33;33.97;;;22.67;;
3101;SDS011;1561;42.666;23.392;2022-10-22T05:21:02;35.03;;;22.00;;
3101;SDS011;1561;42.666;23.392;2022-10-22T05:23:29;34.80;;;21.47;;
3101;SDS011;1561;42.666;23.392;2022-10-22T05:25:56;33.40;;;21.80;;
3101;SDS011;1561;42.666;23.392;2022-10-22T05:28:27;32.80;;;22.60;;
3101;SDS011;1561;42.666;23.392;2022-10-22T05:30:54;47.57;;;26.07;;
3101;SDS011;1561;42.666;23.392;2022-10-22T05:33:22;30.53;;;22.50;;
3101;SDS011;1561;42.666;23.392;2022-10-22T05:35:49;34.83;;;22.67;;
3101;SDS011;1561;42.666;23.392;2022-10-22T05:38:18;33.20;;;23.80;;
3101;SDS011;1561;42.666;23.392;2022-10-22T05:40:45;35.70;;;23.03;;
3101;SDS011;1561;42.666;23.392;2022-10-22T05:43:13;45.30;;;24.10;;
3101;SDS011;1561;42.666;23.392;2022-10-22T05:45:41;31.40;;;23.10;;
3101;SDS011;1561;42.666;23.392;2022-10-22T05:48:08;33.60;;;22.90;;
3101;SDS011;1561;42.666;23.392;2022-10-22T05:50:35;30.57;;;20.10;;
3101;SDS011;1561;42.666;23.392;2022-10-22T05:53:02;22.00;;;16.10;;
3101;SDS011;1561;42.666;23.392;2022-10-22T05:55:33;20.90;;;14.63;;
3101;SDS011;1561;42.666;23.392;2022-10-22T05:58:03;24.83;;;13.80;;
3101;SDS011;1561;42.666;23.392;2022-10-22T06:00:30;17.07;;;13.10;;
3101;SDS011;1561;42.666;23.392;2022-10-22T06:02:59;22.13;;;14.80;;
3101;SDS011;1561;42.666;23.392;2022-10-22T06:05:26;17.97;;;14.30;;
3101;SDS011;1561;42.666;23.392;2022-10-22T06:07:54;23.87;;;14.30;;
3101;SDS011;1561;42.666;23.392;2022-10-22T06:10:22;21.93;;;15.40;;
3101;SDS011;1561;42.666;23.392;2022-10-22T06:12:52;18.87;;;14.00;;
3101;SDS011;1561;42.666;23.392;2022-10-22T06:15:18;19.17;;;14.07;;
3101;SDS011;1561;42.666;23.392;2022-10-22T06:17:46;16.30;;;13.47;;
3101;SDS011;1561;42.666;23.392;2022-10-22T06:20:14;18.80;;;14.27;;
3101;SDS011;1561;42.666;23.392;2022-10-22T06:22:41;17.33;;;13.30;;
3101;SDS011;1561;42.666;23.392;2022-10-22T06:25:08;18.20;;;13.47;;
3101;SDS011;1561;42.666;23.392;2022-10-22T06:27:36;22.20;;;17.03;;
3101;SDS011;1561;42.666;23.392;2022-10-22T06:30:09;34.37;;;22.80;;
3101;SDS011;1561;42.666;23.392;2022-10-22T06:32:36;28.90;;;23.03;;
3101;SDS011;1561;42.666;23.392;2022-10-22T06:35:03;33.10;;;25.80;;
3101;SDS011;1561;42.666;23.392;2022-10-22T06:37:30;35.83;;;23.87;;
3101;SDS011;1561;42.666;23.392;2022-10-22T06:39:57;30.57;;;24.47;;
3101;SDS011;1561;42.666;23.392;2022-10-22T06:42:24;37.47;;;26.90;;
3101;SDS011;1561;42.666;23.392;2022-10-22T06:44:53;39.90;;;26.37;;
3101;SDS011;1561;42.666;23.392;2022-10-22T06:47:21;34.27;;;25.93;;
3101;SDS011;1561;42.666;23.392;2022-10-22T06:49:48;34.60;;;26.73;;
3101;SDS011;1561;42.666;23.392;2022-10-22T06:52:15;34.07;;;24.90;;
3101;SDS011;1561;42.666;23.392;2022-10-22T06:54:42;31.70;;;25.53;;
3101;SDS011;1561;42.666;23.392;2022-10-22T06:57:09;27.40;;;22.87;;
3101;SDS011;1561;42.666;23.392;2022-10-22T06:59:38;32.37;;;24.97;;
3101;SDS011;1561;42.666;23.392;2022-10-22T07:02:05;31.30;;;26.07;;
3101;SDS011;1561;42.666;23.392;2022-10-22T07:04:36;33.80;;;25.73;;
3101;SDS011;1561;42.666;23.392;2022-10-22T07:07:04;34.23;;;26.13;;
3101;SDS011;1561;42.666;23.392;2022-10-22T07:09:31;30.50;;;25.42;;
3101;SDS011;1561;42.666;23.392;2022-10-22T07:11:58;50.00;;;35.58;;
3101;SDS011;1561;42.666;23.392;2022-10-22T07:14:25;34.03;;;27.25;;
3101;SDS011;1561;42.666;23.392;2022-10-22T07:16:52;32.60;;;27.50;;
3101;SDS011;1561;42.666;23.392;2022-10-22T07:19:18;35.03;;;26.98;;
3101;SDS011;1561;42.666;23.392;2022-10-22T07:21:47;28.40;;;25.40;;
3101;SDS011;1561;42.666;23.392;2022-10-22T07:24:15;31.08;;;26.60;;
3101;SDS011;1561;42.666;23.392;2022-10-22T07:26:43;33.55;;;26.38;;
3101;SDS011;1561;42.666;23.392;2022-10-22T07:29:12;34.83;;;25.85;;
3101;SDS011;1561;42.666;23.392;2022-10-22T07:31:41;34.10;;;27.42;;
3101;SDS011;1561;42.666;23.392;2022-10-22T07:34:08;31.85;;;27.17;;
3101;SDS011;1561;42.666;23.392;2022-10-22T07:36:35;32.20;;;27.55;;
3101;SDS011;1561;42.666;23.392;2022-10-22T07:39:03;29.40;;;24.67;;
3101;SDS011;1561;42.666;23.392;2022-10-22T07:41:32;34.55;;;26.55;;
3101;SDS011;1561;42.666;23.392;2022-10-22T07:43:59;33.47;;;26.88;;
3101;SDS011;1561;42.666;23.392;2022-10-22T07:46:26;28.80;;;25.65;;
3101;SDS011;1561;42.666;23.392;2022-10-22T07:48:53;31.40;;;27.58;;
3101;SDS011;1561;42.666;23.392;2022-10-22T07:51:20;31.92;;;28.02;;
3101;SDS011;1561;42.666;23.392;2022-10-22T07:53:47;41.30;;;31.67;;
3101;SDS011;1561;42.666;23.392;2022-10-22T07:56:15;31.42;;;28.23;;
3101;SDS011;1561;42.666;23.392;2022-10-22T07:58:44;30.92;;;27.75;;
3101;SDS011;1561;42.666;23.392;2022-10-22T08:01:10;32.38;;;28.75;;
3101;SDS011;1561;42.666;23.392;2022-10-22T08:03:37;39.13;;;27.30;;
3101;SDS011;1561;42.666;23.392;2022-10-22T08:06:04;36.78;;;27.92;;
3101;SDS011;1561;42.666;23.392;2022-10-22T08:08:32;30.58;;;26.52;;
3101;SDS011;1561;42.666;23.392;2022-10-22T08:11:00;29.45;;;26.23;;
3101;SDS011;1561;42.666;23.392;2022-10-22T08:13:30;28.70;;;25.67;;
3101;SDS011;1561;42.666;23.392;2022-10-22T08:16:00;28.50;;;25.65;;
3101;SDS011;1561;42.666;23.392;2022-10-22T08:18:27;43.08;;;35.33;;
3101;SDS011;1561;42.666;23.392;2022-10-22T08:20:54;35.42;;;28.42;;
3101;SDS011;1561;42.666;23.392;2022-10-22T08:23:21;36.38;;;25.75;;
3101;SDS011;1561;42.666;23.392;2022-10-22T08:25:51;28.38;;;25.35;;
3101;SDS011;1561;42.666;23.392;2022-10-22T08:28:18;29.98;;;25.40;;
3101;SDS011;1561;42.666;23.392;2022-10-22T08:30:46;28.05;;;24.73;;
3101;SDS011;1561;42.666;23.392;2022-10-22T08:33:13;31.00;;;26.75;;
3101;SDS011;1561;42.666;23.392;2022-10-22T08:35:40;28.70;;;25.40;;
3101;SDS011;1561;42.666;23.392;2022-10-22T08:38:07;28.42;;;25.27;;
3101;SDS011;1561;42.666;23.392;2022-10-22T08:40:36;29.17;;;25.73;;
3101;SDS011;1561;42.666;23.392;2022-10-22T08:46:08;29.40;;;25.60;;
3101;SDS011;1561;42.666;23.392;2022-10-22T08:48:44;44.50;;;32.95;;
3101;SDS011;1561;42.666;23.392;2022-10-22T08:51:16;42.45;;;33.28;;
3101;SDS011;1561;42.666;23.392;2022-10-22T08:54:05;28.73;;;23.40;;
3101;SDS011;1561;42.666;23.392;2022-10-22T08:56:41;26.83;;;23.80;;
3101;SDS011;1561;42.666;23.392;2022-10-22T08:59:19;28.35;;;24.67;;
3101;SDS011;1561;42.666;23.392;2022-10-22T09:01:54;24.88;;;22.63;;
3101;SDS011;1561;42.666;23.392;2022-10-22T09:04:22;29.27;;;21.55;;
3101;SDS011;1561;42.666;23.392;2022-10-22T09:06:54;23.67;;;20.33;;
3101;SDS011;1561;42.666;23.392;2022-10-22T09:09:24;23.25;;;20.52;;
3101;SDS011;1561;42.666;23.392;2022-10-22T09:11:58;21.80;;;19.02;;
3101;SDS011;1561;42.666;23.392;2022-10-22T09:14:26;22.42;;;19.63;;
3101;SDS011;1561;42.666;23.392;2022-10-22T09:19:48;21.25;;;19.13;;
3101;SDS011;1561;42.666;23.392;2022-10-22T09:22:30;47.30;;;36.08;;
3101;SDS011;1561;42.666;23.392;2022-10-22T09:25:08;21.10;;;17.80;;
3101;SDS011;1561;42.666;23.392;2022-10-22T09:27:47;20.52;;;17.77;;
3101;SDS011;1561;42.666;23.392;2022-10-22T09:30:15;18.75;;;17.05;;
3101;SDS011;1561;42.666;23.392;2022-10-22T09:32:46;20.10;;;17.90;;
3101;SDS011;1561;42.666;23.392;2022-10-22T09:35:20;19.45;;;17.65;;
3101;SDS011;1561;42.666;23.392;2022-10-22T09:37:49;21.17;;;18.92;;
3101;SDS011;1561;42.666;23.392;2022-10-22T09:40:20;21.52;;;19.23;;
3101;SDS011;1561;42.666;23.392;2022-10-22T09:42:54;23.05;;;20.65;;
3101;SDS011;1561;42.666;23.392;2022-10-22T09:45:22;20.77;;;18.63;;
3101;SDS011;1561;42.666;23.392;2022-10-22T09:48:06;21.13;;;18.67;;
3101;SDS011;1561;42.666;23.392;2022-10-22T09:50:38;22.70;;;20.02;;
3101;SDS011;1561;42.666;23.392;2022-10-22T09:53:17;20.63;;;18.33;;
3101;SDS011;1561;42.666;23.392;2022-10-22T09:55:51;22.88;;;19.77;;
3101;SDS011;1561;42.666;23.392;2022-10-22T09:58:42;21.42;;;19.27;;
3101;SDS011;1561;42.666;23.392;2022-10-22T10:01:22;22.52;;;20.10;;
3101;SDS011;1561;42.666;23.392;2022-10-22T10:03:54;35.40;;;27.15;;
3101;SDS011;1561;42.666;23.392;2022-10-22T10:06:35;22.95;;;20.50;;
3101;SDS011;1561;42.666;23.392;2022-10-22T10:09:10;25.38;;;21.13;;
3101;SDS011;1561;42.666;23.392;2022-10-22T10:11:45;32.90;;;28.48;;
3101;SDS011;1561;42.666;23.392;2022-10-22T10:14:25;20.65;;;18.55;;
3101;SDS011;1561;42.666;23.392;2022-10-22T10:17:16;21.20;;;19.20;;
3101;SDS011;1561;42.666;23.392;2022-10-22T10:20:08;20.50;;;18.50;;
3101;SDS011;1561;42.666;23.392;2022-10-22T10:22:51;20.60;;;18.50;;
3101;SDS011;1561;42.666;23.392;2022-10-22T10:31:23;20.42;;;18.52;;
3101;SDS011;1561;42.666;23.392;2022-10-22T10:34:03;20.13;;;18.13;;
3101;SDS011;1561;42.666;23.392;2022-10-22T10:37:08;19.95;;;18.00;;
3101;SDS011;1561;42.666;23.392;2022-10-22T10:39:55;22.75;;;20.40;;
3101;SDS011;1561;42.666;23.392;2022-10-22T10:42:40;70.57;;;44.50;;
3101;SDS011;1561;42.666;23.392;2022-10-22T10:51:30;21.25;;;18.92;;
3101;SDS011;1561;42.666;23.392;2022-10-22T10:57:23;26.92;;;20.02;;
3101;SDS011;1561;42.666;23.392;2022-10-22T11:00:13;20.20;;;18.23;;
3101;SDS011;1561;42.666;23.392;2022-10-22T11:06:10;20.27;;;18.10;;
3101;SDS011;1561;42.666;23.392;2022-10-22T11:08:41;18.73;;;16.90;;
3101;SDS011;1561;42.666;23.392;2022-10-22T11:11:21;19.67;;;17.67;;
3101;SDS011;1561;42.666;23.392;2022-10-22T11:14:08;29.58;;;23.35;;
3101;SDS011;1561;42.666;23.392;2022-10-22T11:16:52;21.83;;;19.50;;
3101;SDS011;1561;42.666;23.392;2022-10-22T11:19:29;18.35;;;16.63;;
3101;SDS011;1561;42.666;23.392;2022-10-22T11:22:03;19.83;;;17.75;;
3101;SDS011;1561;42.666;23.392;2022-10-22T11:24:37;18.45;;;16.52;;
3101;SDS011;1561;42.666;23.392;2022-10-22T11:27:14;19.75;;;17.10;;
3101;SDS011;1561;42.666;23.392;2022-10-22T11:29:53;20.50;;;18.33;;
3101;SDS011;1561;42.666;23.392;2022-10-22T11:32:38;20.45;;;16.65;;
3101;SDS011;1561;42.666;23.392;2022-10-22T11:35:14;22.80;;;20.40;;
3101;SDS011;1561;42.666;23.392;2022-10-22T11:37:49;16.20;;;14.60;;
3101;SDS011;1561;42.666;23.392;2022-10-22T11:40:24;16.50;;;14.73;;
3101;SDS011;1561;42.666;23.392;2022-10-22T11:43:02;16.38;;;13.63;;
3101;SDS011;1561;42.666;23.392;2022-10-22T11:45:33;16.67;;;14.32;;
3101;SDS011;1561;42.666;23.392;2022-10-22T11:48:13;15.48;;;13.88;;
3101;SDS011;1561;42.666;23.392;2022-10-22T11:50:47;15.77;;;14.27;;
3101;SDS011;1561;42.666;23.392;2022-10-22T11:53:25;16.40;;;14.80;;
3101;SDS011;1561;42.666;23.392;2022-10-22T11:55:55;15.27;;;13.70;;
3101;SDS011;1561;42.666;23.392;2022-10-22T11:58:32;27.17;;;20.80;;
3101;SDS011;1561;42.666;23.392;2022-10-22T12:01:20;15.93;;;14.50;;
3101;SDS011;1561;42.666;23.392;2022-10-22T12:03:53;15.07;;;13.57;;
3101;SDS011;1561;42.666;23.392;2022-10-22T12:06:57;22.95;;;14.40;;
3101;SDS011;1561;42.666;23.392;2022-10-22T12:09:25;14.57;;;13.15;;
3101;SDS011;1561;42.666;23.392;2022-10-22T12:12:10;15.15;;;13.55;;
3101;SDS011;1561;42.666;23.392;2022-10-22T12:14:51;14.88;;;13.48;;
3101;SDS011;1561;42.666;23.392;2022-10-22T12:17:23;15.13;;;13.52;;
3101;SDS011;1561;42.666;23.392;2022-10-22T12:19:54;16.10;;;14.02;;
3101;SDS011;1561;42.666;23.392;2022-10-22T12:22:30;17.10;;;14.55;;
3101;SDS011;1561;42.666;23.392;2022-10-22T12:25:00;19.42;;;14.30;;
3101;SDS011;1561;42.666;23.392;2022-10-22T12:27:33;18.05;;;12.95;;
3101;SDS011;1561;42.666;23.392;2022-10-22T12:30:15;35.28;;;24.90;;
3101;SDS011;1561;42.666;23.392;2022-10-22T12:32:46;22.17;;;18.05;;
3101;SDS011;1561;42.666;23.392;2022-10-22T12:35:14;15.70;;;13.98;;
3101;SDS011;1561;42.666;23.392;2022-10-22T12:37:43;19.13;;;14.43;;
3101;SDS011;1561;42.666;23.392;2022-10-22T12:40:18;17.58;;;15.18;;
3101;SDS011;1561;42.666;23.392;2022-10-22T12:42:48;14.55;;;13.15;;
3101;SDS011;1561;42.666;23.392;2022-10-22T12:45:22;16.17;;;13.77;;
3101;SDS011;1561;42.666;23.392;2022-10-22T12:47:55;17.83;;;12.98;;
3101;SDS011;1561;42.666;23.392;2022-10-22T12:50:24;14.32;;;12.93;;
3101;SDS011;1561;42.666;23.392;2022-10-22T12:52:58;14.60;;;13.07;;
3101;SDS011;1561;42.666;23.392;2022-10-22T12:55:26;14.45;;;12.98;;
3101;SDS011;1561;42.666;23.392;2022-10-22T12:57:53;22.98;;;16.10;;
3101;SDS011;1561;42.666;23.392;2022-10-22T13:00:24;16.92;;;13.80;;
3101;SDS011;1561;42.666;23.392;2022-10-22T13:02:55;17.23;;;15.40;;
3101;SDS011;1561;42.666;23.392;2022-10-22T13:05:25;23.83;;;18.15;;
3101;SDS011;1561;42.666;23.392;2022-10-22T13:08:04;14.60;;;13.07;;
3101;SDS011;1561;42.666;23.392;2022-10-22T13:10:38;14.70;;;13.15;;
3101;SDS011;1561;42.666;23.392;2022-10-22T13:18:45;14.07;;;12.68;;
3101;SDS011;1561;42.666;23.392;2022-10-22T13:21:21;20.70;;;13.57;;
3101;SDS011;1561;42.666;23.392;2022-10-22T13:23:54;15.73;;;13.65;;
3101;SDS011;1561;42.666;23.392;2022-10-22T13:26:29;13.90;;;12.18;;
3101;SDS011;1561;42.666;23.392;2022-10-22T13:28:59;15.98;;;13.90;;
3101;SDS011;1561;42.666;23.392;2022-10-22T13:31:29;13.82;;;12.55;;
3101;SDS011;1561;42.666;23.392;2022-10-22T13:34:03;15.30;;;13.60;;
3101;SDS011;1561;42.666;23.392;2022-10-22T13:36:33;15.05;;;13.52;;
3101;SDS011;1561;42.666;23.392;2022-10-22T13:39:03;16.63;;;12.50;;
3101;SDS011;1561;42.666;23.392;2022-10-22T13:41:36;15.63;;;14.13;;
3101;SDS011;1561;42.666;23.392;2022-10-22T13:44:05;18.65;;;13.88;;
3101;SDS011;1561;42.666;23.392;2022-10-22T13:46:33;14.10;;;12.70;;
3101;SDS011;1561;42.666;23.392;2022-10-22T13:49:06;20.90;;;13.68;;
3101;SDS011;1561;42.666;23.392;2022-10-22T13:51:42;18.33;;;13.02;;
3101;SDS011;1561;42.666;23.392;2022-10-22T13:54:12;17.95;;;14.30;;
3101;SDS011;1561;42.666;23.392;2022-10-22T13:56:41;26.00;;;13.38;;
3101;SDS011;1561;42.666;23.392;2022-10-22T13:59:10;16.23;;;14.48;;
3101;SDS011;1561;42.666;23.392;2022-10-22T14:01:39;17.23;;;14.88;;
3101;SDS011;1561;42.666;23.392;2022-10-22T14:04:07;19.75;;;14.35;;
3101;SDS011;1561;42.666;23.392;2022-10-22T14:06:39;19.50;;;13.85;;
3101;SDS011;1561;42.666;23.392;2022-10-22T14:09:09;18.30;;;13.52;;
3101;SDS011;1561;42.666;23.392;2022-10-22T14:11:44;17.63;;;13.93;;
3101;SDS011;1561;42.666;23.392;2022-10-22T14:14:11;15.18;;;13.68;;
3101;SDS011;1561;42.666;23.392;2022-10-22T14:16:50;16.45;;;14.70;;
3101;SDS011;1561;42.666;23.392;2022-10-22T14:19:18;18.25;;;13.20;;
3101;SDS011;1561;42.666;23.392;2022-10-22T14:22:00;15.45;;;13.55;;
3101;SDS011;1561;42.666;23.392;2022-10-22T14:24:29;16.77;;;15.07;;
3101;SDS011;1561;42.666;23.392;2022-10-22T14:27:09;27.92;;;16.00;;
3101;SDS011;1561;42.666;23.392;2022-10-22T14:29:38;15.70;;;12.75;;
3101;SDS011;1561;42.666;23.392;2022-10-22T14:32:11;31.55;;;22.50;;
3101;SDS011;1561;42.666;23.392;2022-10-22T14:34:40;16.45;;;13.52;;
3101;SDS011;1561;42.666;23.392;2022-10-22T14:37:12;25.88;;;17.40;;
3101;SDS011;1561;42.666;23.392;2022-10-22T14:39:46;19.70;;;14.95;;
3101;SDS011;1561;42.666;23.392;2022-10-22T14:42:24;15.15;;;13.25;;
3101;SDS011;1561;42.666;23.392;2022-10-22T14:44:53;15.05;;;13.55;;
3101;SDS011;1561;42.666;23.392;2022-10-22T14:47:24;17.02;;;14.63;;
3101;SDS011;1561;42.666;23.392;2022-10-22T14:49:51;14.73;;;13.32;;
3101;SDS011;1561;42.666;23.392;2022-10-22T14:52:18;16.80;;;15.15;;
3101;SDS011;1561;42.666;23.392;2022-10-22T14:54:47;19.00;;;17.05;;
3101;SDS011;1561;42.666;23.392;2022-10-22T14:57:16;18.80;;;14.90;;
3101;SDS011;1561;42.666;23.392;2022-10-22T14:59:44;27.30;;;18.33;;
3101;SDS011;1561;42.666;23.392;2022-10-22T15:02:12;14.45;;;12.60;;
3101;SDS011;1561;42.666;23.392;2022-10-22T15:04:44;17.80;;;13.52;;
3101;SDS011;1561;42.666;23.392;2022-10-22T15:07:11;16.00;;;13.57;;
3101;SDS011;1561;42.666;23.392;2022-10-22T15:09:38;16.63;;;13.05;;
3101;SDS011;1561;42.666;23.392;2022-10-22T15:12:06;16.25;;;14.65;;
3101;SDS011;1561;42.666;23.392;2022-10-22T15:14:35;33.50;;;15.90;;
3101;SDS011;1561;42.666;23.392;2022-10-22T15:17:02;20.30;;;16.40;;
3101;SDS011;1561;42.666;23.392;2022-10-22T15:19:31;17.73;;;15.18;;
3101;SDS011;1561;42.666;23.392;2022-10-22T15:22:01;21.42;;;15.90;;
3101;SDS011;1561;42.666;23.392;2022-10-22T15:24:28;17.65;;;15.73;;
3101;SDS011;1561;42.666;23.392;2022-10-22T15:26:55;17.88;;;16.17;;
3101;SDS011;1561;42.666;23.392;2022-10-22T15:29:22;34.33;;;19.13;;
3101;SDS011;1561;42.666;23.392;2022-10-22T15:31:50;23.20;;;18.85;;